ADDS METAR Data INFO
IDs: Format: Raw Decoded Include TAF

Data at: 1314 UTC 11 Dec 2017

KECP 111253Z 00000KT 10SM CLR M01/M02 A3030 RMK AO2 SLP273 T10061017
KECP 111153Z 00000KT 10SM CLR M01/M03 A3029 RMK AO2 SLP269 T10111028 10033 21011 58002
KECP 111053Z AUTO 00000KT 10SM CLR M01/M02 A3029 RMK AO2 SLP269 T10111022
KECP 110953Z AUTO 00000KT 10SM CLR M01/M02 A3030 RMK AO2 SLP272 T10061022
KECP 110853Z AUTO 00000KT 10SM CLR M01/M02 A3029 RMK AO2 SLP271 T10061017 55005
KECP 110753Z AUTO 00000KT 10SM CLR 00/M01 A3029 RMK AO2 SLP271 T00001011
KECP 110653Z AUTO 00000KT 10SM CLR 01/M01 A3030 RMK AO2 SLP272 T00111006
KECP 110553Z AUTO 32005KT 10SM CLR 03/M01 A3031 RMK AO2 SLP276 T00281006 10061 20006 401281011 58003
KECP 110453Z AUTO 31006KT 10SM CLR 02/M01 A3033 RMK AO2 SLP283 T00171006
KECP 110353Z 00000KT 10SM CLR 02/00 A3033 RMK AO2 SLP282 T00170000
KECP 110253Z 00000KT 10SM CLR 02/00 A3032 RMK AO2 SLP280 T00170000 50002
KECP 110153Z 00000KT 10SM CLR 02/01 A3033 RMK AO2 SLP282 T00220006
KECP 110053Z 00000KT 10SM CLR 03/01 A3033 RMK AO2 SLP282 T00330011
KECP 102353Z 00000KT 10SM CLR 06/02 A3031 RMK AO2 SLP277 T00560017 10128 20050 53008
KECP 102253Z 24004KT 10SM CLR 08/M01 A3030 RMK AO2 SLP273 T00831006
KECP 102153Z 29007KT 10SM CLR 12/M04 A3030 RMK AO2 SLP272 T01221044
KECP 102053Z 29006KT 10SM CLR 13/M04 A3029 RMK AO2 SLP269 T01281044 56017
KECP 101953Z 34006KT 10SM CLR 13/M04 A3030 RMK AO2 SLP272 T01281044
KECP 101853Z 32007KT 10SM CLR 12/M05 A3030 RMK AO2 SLP274 T01221050
KECP 101753Z 31006KT 10SM CLR 11/M05 A3034 RMK AO2 SLP286 T01061050 10106 21011 58012
KECP 101653Z 31006KT 10SM CLR 09/M03 A3037 RMK AO2 SLP296 T00891033
KECP 101553Z VRB05KT 10SM CLR 07/M02 A3038 RMK AO2 SLP300 T00671022
KECP 101453Z 35008KT 10SM CLR 04/M02 A3037 RMK AO2 SLP298 T00441017 51015
KECP 101353Z 32006KT 10SM CLR 02/M01 A3036 RMK AO2 SLP295 T00171011
KECP 101253Z 33004KT 10SM CLR M01/M02 A3034 RMK AO2 SLP287 T10061022
KECP 101153Z 32007KT 10SM CLR M01/M02 A3033 RMK AO2 SLP283 T10111022 10028 21011 53012
KECP 101053Z AUTO 32007KT 10SM CLR 00/M02 A3031 RMK AO2 SLP276 T00001017
KECP 100953Z AUTO 31007KT 10SM CLR 01/M02 A3030 RMK AO2 SLP273 T00061017
KECP 100853Z AUTO 32008KT 10SM CLR 02/M02 A3029 RMK AO2 SLP271 T00171017 53009
KECP 100753Z AUTO 29009KT 10SM CLR 03/M02 A3028 RMK AO2 SLP267 T00281017
KECP 100653Z AUTO 28005KT 10SM CLR 02/M02 A3027 RMK AO2 SLP264 T00171022
KECP 100553Z AUTO 00000KT 10SM CLR 02/M02 A3027 RMK AO2 SLP262 T00171022 10039 20006 401000006 53014
KECP 100453Z AUTO 31004KT 10SM CLR 02/M02 A3025 RMK AO2 SLP255 T00171017
KECP 100353Z AUTO 30005KT 10SM CLR 01/M02 A3024 RMK AO2 SLP253 T00111017
KECP 100253Z 29005KT 10SM CLR 01/M02 A3023 RMK AO2 SLP248 T00111017 53025
KECP 100153Z 30004KT 10SM CLR 01/M01 A3019 RMK AO2 SLP236 T00111011